createdAt,value
2017-03-19T00:00:04.152Z,0
2017-03-19T00:01:04.129Z,0
2017-03-19T00:02:03.815Z,0
2017-03-19T00:03:04.094Z,0
2017-03-19T00:04:04.078Z,0
2017-03-19T00:05:04.060Z,0
2017-03-19T00:06:04.038Z,0
2017-03-19T00:07:04.003Z,0
2017-03-19T00:08:04.003Z,0
2017-03-19T00:09:03.966Z,0
2017-03-19T00:10:03.667Z,0
2017-03-19T00:11:03.929Z,0
2017-03-19T00:12:03.910Z,0
2017-03-19T00:13:03.896Z,0
2017-03-19T00:14:03.914Z,0
2017-03-19T00:15:03.559Z,0
2017-03-19T00:16:03.842Z,0
2017-03-19T00:17:03.828Z,0
2017-03-19T00:18:03.782Z,0
2017-03-19T00:19:03.802Z,0
2017-03-19T00:20:03.764Z,0
2017-03-19T00:21:03.722Z,0
2017-03-19T00:22:03.729Z,0
2017-03-19T00:23:03.405Z,0
2017-03-19T00:24:03.689Z,0
2017-03-19T00:25:03.665Z,0
2017-03-19T00:26:03.649Z,0
2017-03-19T00:27:03.633Z,0
2017-03-19T00:28:03.631Z,0
2017-03-19T00:29:03.302Z,0
2017-03-19T00:30:03.554Z,0
2017-03-19T00:31:03.569Z,0
2017-03-19T00:32:03.228Z,0
2017-03-19T00:33:03.535Z,0
2017-03-19T00:34:03.510Z,0
2017-03-19T00:35:03.468Z,0
2017-03-19T00:36:03.433Z,0
2017-03-19T00:37:03.440Z,0
2017-03-19T00:38:03.422Z,0
2017-03-19T00:39:03.409Z,0
2017-03-19T00:40:03.386Z,0
2017-03-19T00:41:03.365Z,0
2017-03-19T00:42:03.342Z,0
2017-03-19T00:43:03.330Z,0
2017-03-19T00:44:03.306Z,0
2017-03-19T00:45:03.271Z,0
2017-03-19T00:46:03.261Z,0
2017-03-19T00:47:03.231Z,0
2017-03-19T00:48:03.280Z,0
2017-03-19T00:49:03.209Z,0
2017-03-19T00:50:03.188Z,0
2017-03-19T00:51:03.173Z,0
2017-03-19T00:52:03.145Z,0
2017-03-19T00:53:03.106Z,0
2017-03-19T00:54:03.109Z,0
2017-03-19T00:55:03.087Z,0
2017-03-19T00:56:03.072Z,0
2017-03-19T00:57:03.036Z,0
2017-03-19T00:58:03.022Z,0
2017-03-19T00:59:03.007Z,0
2017-03-19T01:00:02.983Z,0
2017-03-19T01:01:02.964Z,0
2017-03-19T01:02:02.940Z,0
2017-03-19T01:03:02.920Z,0
2017-03-19T01:04:02.603Z,0
2017-03-19T01:05:02.573Z,0
2017-03-19T01:06:02.865Z,0
2017-03-19T01:07:02.877Z,0
2017-03-19T01:08:02.827Z,0
2017-03-19T01:09:02.824Z,0
2017-03-19T01:10:02.802Z,0
2017-03-19T01:11:02.779Z,0
2017-03-19T01:12:02.761Z,0
2017-03-19T01:13:02.745Z,0
2017-03-19T01:14:02.717Z,0
2017-03-19T01:15:02.723Z,0
2017-03-19T01:16:02.685Z,0
2017-03-19T01:17:02.641Z,0
2017-03-19T01:18:02.650Z,0
2017-03-19T01:19:02.616Z,0
2017-03-19T01:20:02.595Z,0
2017-03-19T01:21:02.579Z,0
2017-03-19T01:22:02.569Z,0
2017-03-19T01:23:02.546Z,0
2017-03-19T01:24:02.527Z,0
2017-03-19T01:25:02.519Z,0
2017-03-19T01:26:02.503Z,0
2017-03-19T01:27:02.174Z,0
2017-03-19T01:28:02.452Z,0
2017-03-19T01:29:02.437Z,0
2017-03-19T01:30:02.407Z,0
2017-03-19T01:31:02.103Z,0
2017-03-19T01:32:02.360Z,0
2017-03-19T01:33:02.046Z,0
2017-03-19T01:34:02.339Z,0
2017-03-19T01:35:02.302Z,0
2017-03-19T01:36:02.299Z,0
2017-03-19T01:37:02.263Z,0
2017-03-19T01:38:02.244Z,0
2017-03-19T01:39:01.942Z,0
2017-03-19T01:40:01.912Z,0
2017-03-19T01:41:02.201Z,0
2017-03-19T01:42:02.188Z,0
2017-03-19T01:43:02.191Z,0
2017-03-19T01:44:02.165Z,0
2017-03-19T01:45:02.127Z,0
2017-03-19T01:46:02.094Z,0
2017-03-19T01:47:02.099Z,0
2017-03-19T01:48:02.073Z,0
2017-03-19T01:49:02.038Z,0
2017-03-19T01:50:02.030Z,0
2017-03-19T01:51:01.982Z,0
2017-03-19T01:52:02.000Z,0
2017-03-19T01:53:01.968Z,0
2017-03-19T01:54:01.948Z,0
2017-03-19T01:55:01.924Z,0
2017-03-19T01:56:01.890Z,0
2017-03-19T01:57:01.890Z,0
2017-03-19T01:58:01.894Z,0
2017-03-19T01:59:01.871Z,0
2017-03-19T02:00:01.843Z,0
2017-03-19T02:01:01.817Z,0
2017-03-19T02:02:01.498Z,0
2017-03-19T02:03:01.777Z,0
2017-03-19T02:04:01.767Z,0
2017-03-19T02:05:01.743Z,0
2017-03-19T02:06:01.717Z,0
2017-03-19T02:07:01.712Z,0
2017-03-19T02:08:01.678Z,0
2017-03-19T02:09:01.661Z,0
2017-03-19T02:10:01.651Z,0
2017-03-19T02:11:01.642Z,0
2017-03-19T02:12:01.621Z,0
2017-03-19T02:13:01.289Z,0
2017-03-19T02:14:01.568Z,0
2017-03-19T02:15:01.550Z,0
2017-03-19T02:16:01.541Z,0
2017-03-19T02:17:01.511Z,0
2017-03-19T02:18:01.501Z,0
2017-03-19T02:19:01.477Z,0
2017-03-19T02:20:01.454Z,0
2017-03-19T02:21:01.435Z,0
2017-03-19T02:22:01.425Z,0
2017-03-19T02:23:01.384Z,0
2017-03-19T02:24:01.370Z,0
2017-03-19T02:25:01.354Z,0
2017-03-19T02:26:01.344Z,0
2017-03-19T02:27:01.335Z,0
2017-03-19T02:28:01.346Z,0
2017-03-19T02:29:01.280Z,0
2017-03-19T02:30:01.255Z,0
2017-03-19T02:31:01.226Z,0
2017-03-19T02:32:01.218Z,0
2017-03-19T02:33:01.205Z,0
2017-03-19T02:34:01.186Z,0
2017-03-19T02:35:01.154Z,0
2017-03-19T02:36:01.161Z,0
2017-03-19T02:37:01.129Z,0
2017-03-19T02:38:01.095Z,0
2017-03-19T02:39:01.162Z,0
2017-03-19T02:40:00.772Z,0
2017-03-19T02:41:01.027Z,0
2017-03-19T02:42:01.020Z,0
2017-03-19T02:43:01.027Z,0
2017-03-19T02:44:00.699Z,0
2017-03-19T02:45:00.668Z,0
2017-03-19T02:46:00.951Z,0
2017-03-19T02:47:00.929Z,0
2017-03-19T02:48:00.621Z,0
2017-03-19T02:49:00.905Z,0
2017-03-19T02:50:00.879Z,0
2017-03-19T02:51:00.846Z,0
2017-03-19T02:52:00.827Z,0
2017-03-19T02:53:00.805Z,0
2017-03-19T02:54:00.816Z,0
2017-03-19T02:55:00.789Z,0
2017-03-19T02:56:00.756Z,0
2017-03-19T02:57:00.758Z,0
2017-03-19T02:58:00.738Z,0
2017-03-19T02:59:00.698Z,0
2017-03-19T03:00:00.690Z,0
2017-03-19T03:01:00.673Z,0
2017-03-19T03:02:00.647Z,0
2017-03-19T03:03:00.640Z,0
2017-03-19T03:04:00.323Z,0
2017-03-19T03:05:00.605Z,0
2017-03-19T03:06:00.559Z,0
2017-03-19T03:07:00.556Z,0
2017-03-19T03:08:00.540Z,0
2017-03-19T03:09:00.523Z,0
2017-03-19T03:10:00.505Z,0
2017-03-19T03:11:00.484Z,0
2017-03-19T03:12:00.471Z,0
2017-03-19T03:13:00.450Z,0
2017-03-19T03:14:00.429Z,0
2017-03-19T03:15:00.415Z,0
2017-03-19T03:16:00.376Z,0
2017-03-19T03:17:00.347Z,0
2017-03-19T03:18:00.358Z,0
2017-03-19T03:19:00.354Z,0
2017-03-19T03:20:00.331Z,0
2017-03-19T03:21:00.298Z,0
2017-03-19T03:22:00.262Z,0
2017-03-19T03:23:00.237Z,0
2017-03-19T03:23:59.947Z,0
2017-03-19T03:25:00.212Z,0
2017-03-19T03:26:00.202Z,0
2017-03-19T03:27:00.195Z,0
2017-03-19T03:28:00.176Z,0
2017-03-19T03:29:00.151Z,0
2017-03-19T03:30:00.143Z,0
2017-03-19T03:31:00.112Z,0
2017-03-19T03:32:00.079Z,0
2017-03-19T03:33:00.053Z,0
2017-03-19T03:34:00.048Z,0
2017-03-19T03:35:00.025Z,0
2017-03-19T03:36:00.015Z,0
2017-03-19T03:36:59.995Z,0
2017-03-19T03:37:59.975Z,0
2017-03-19T03:38:59.937Z,0
2017-03-19T03:39:59.922Z,0
2017-03-19T03:40:59.352Z,0
2017-03-19T03:41:59.903Z,0
2017-03-19T03:42:59.899Z,0
2017-03-19T03:43:59.880Z,0
2017-03-19T03:44:59.851Z,0
2017-03-19T03:45:59.827Z,0
2017-03-19T03:46:59.798Z,0
2017-03-19T03:47:59.797Z,0
2017-03-19T03:48:59.456Z,0
2017-03-19T03:49:59.181Z,0
2017-03-19T03:50:59.727Z,0
2017-03-19T03:51:59.413Z,0
2017-03-19T03:52:59.401Z,0
2017-03-19T03:53:59.377Z,0
2017-03-19T03:54:59.677Z,0
2017-03-19T03:55:59.615Z,0
2017-03-19T03:56:59.621Z,0
2017-03-19T03:57:59.608Z,0
2017-03-19T03:58:59.595Z,0
2017-03-19T03:59:59.574Z,0
2017-03-19T04:00:59.536Z,0
2017-03-19T04:01:59.533Z,0
2017-03-19T04:02:59.540Z,0
2017-03-19T04:03:59.497Z,0
2017-03-19T04:04:59.466Z,0
2017-03-19T04:05:59.453Z,0
2017-03-19T04:06:59.426Z,0
2017-03-19T04:07:59.411Z,0
2017-03-19T04:08:59.403Z,0
2017-03-19T04:09:59.086Z,0
2017-03-19T04:10:59.070Z,0
2017-03-19T04:11:59.333Z,0
2017-03-19T04:12:59.328Z,0
2017-03-19T04:13:59.288Z,0
2017-03-19T04:14:59.277Z,0
2017-03-19T04:15:59.265Z,0
2017-03-19T04:16:59.265Z,0
2017-03-19T04:17:59.226Z,0
2017-03-19T04:18:59.208Z,0
2017-03-19T04:19:59.183Z,0
2017-03-19T04:20:59.159Z,0
2017-03-19T04:21:58.829Z,0
2017-03-19T04:22:59.133Z,0
2017-03-19T04:23:59.092Z,0
2017-03-19T04:24:59.085Z,0
2017-03-19T04:25:59.076Z,0
2017-03-19T04:26:59.051Z,0
2017-03-19T04:27:59.046Z,0
2017-03-19T04:28:59.014Z,0
2017-03-19T04:29:58.694Z,0
2017-03-19T04:30:58.670Z,0
2017-03-19T04:31:58.958Z,0
2017-03-19T04:32:58.960Z,0
2017-03-19T04:33:58.911Z,0
2017-03-19T04:34:58.913Z,0
2017-03-19T04:35:58.860Z,0
2017-03-19T04:36:58.882Z,0
2017-03-19T04:37:58.844Z,0
2017-03-19T04:38:58.820Z,0
2017-03-19T04:39:58.804Z,0
2017-03-19T04:40:58.788Z,0
2017-03-19T04:41:58.769Z,0
2017-03-19T04:42:58.440Z,0
2017-03-19T04:43:58.719Z,0
2017-03-19T04:44:58.701Z,0
2017-03-19T04:45:58.686Z,0
2017-03-19T04:46:58.656Z,0
2017-03-19T04:47:58.668Z,0
2017-03-19T04:48:58.647Z,0
2017-03-19T04:49:58.625Z,0
2017-03-19T04:50:58.615Z,0
2017-03-19T04:51:58.573Z,0
2017-03-19T04:52:58.790Z,0
2017-03-19T04:53:58.548Z,0
2017-03-19T04:54:58.217Z,0
2017-03-19T04:55:58.514Z,4
2017-03-19T04:56:58.483Z,4
2017-03-19T04:57:58.167Z,4
2017-03-19T04:58:58.449Z,4
2017-03-19T04:59:58.130Z,4
2017-03-19T05:00:58.115Z,8
2017-03-19T05:01:58.075Z,8
2017-03-19T05:02:58.127Z,8
2017-03-19T05:03:58.070Z,12
2017-03-19T05:04:58.344Z,12
2017-03-19T05:05:58.021Z,16
2017-03-19T05:06:57.720Z,20
2017-03-19T05:07:58.278Z,24
2017-03-19T05:08:58.286Z,28
2017-03-19T05:09:58.248Z,32
2017-03-19T05:10:58.233Z,40
2017-03-19T05:11:58.217Z,44
2017-03-19T05:12:58.214Z,52
2017-03-19T05:13:58.185Z,64
2017-03-19T05:14:58.157Z,68
2017-03-19T05:15:58.150Z,76
2017-03-19T05:16:58.013Z,84
2017-03-19T05:17:58.151Z,92
2017-03-19T05:18:58.095Z,104
2017-03-19T05:19:58.094Z,112
2017-03-19T05:20:57.944Z,124
2017-03-19T05:22:11.410Z,140
2017-03-19T05:22:57.720Z,148
2017-03-19T05:23:57.990Z,164
2017-03-19T05:24:57.863Z,184
2017-03-19T05:26:11.320Z,208
2017-03-19T05:26:57.939Z,224
2017-03-19T05:27:57.615Z,248
2017-03-19T05:28:57.917Z,276
2017-03-19T05:29:57.882Z,308
2017-03-19T05:30:57.873Z,336
2017-03-19T05:31:57.558Z,372
2017-03-19T05:32:57.827Z,416
2017-03-19T05:33:57.496Z,452
2017-03-19T05:34:57.769Z,496
2017-03-19T05:35:57.769Z,540
2017-03-19T05:36:57.754Z,588
2017-03-19T05:37:57.742Z,632
2017-03-19T05:38:57.725Z,680
2017-03-19T05:39:57.383Z,724
2017-03-19T05:40:57.683Z,784
2017-03-19T05:41:57.668Z,848
2017-03-19T05:42:57.323Z,916
2017-03-19T05:43:57.614Z,988
2017-03-19T05:44:57.598Z,1076
2017-03-19T05:45:57.566Z,1152
2017-03-19T05:46:57.568Z,1216
2017-03-19T05:47:57.555Z,1244
2017-03-19T05:48:57.540Z,1264
2017-03-19T05:49:57.736Z,1296
2017-03-19T05:50:57.390Z,1332
2017-03-19T05:51:57.494Z,1408
2017-03-19T05:52:57.464Z,1512
2017-03-19T05:53:57.651Z,1612
2017-03-19T05:54:57.427Z,1704
2017-03-19T05:55:57.104Z,1828
2017-03-19T05:56:57.389Z,1932
2017-03-19T05:57:57.372Z,2028
2017-03-19T05:58:57.345Z,2128
2017-03-19T05:59:57.035Z,2228
2017-03-19T06:00:57.313Z,2332
2017-03-19T06:01:57.290Z,2424
2017-03-19T06:02:57.280Z,2496
2017-03-19T06:03:57.266Z,2540
2017-03-19T06:04:57.242Z,2636
2017-03-19T06:05:57.263Z,2776
2017-03-19T06:06:57.210Z,2948
2017-03-19T06:07:57.160Z,3116
2017-03-19T06:08:56.855Z,3328
2017-03-19T06:09:56.852Z,3496
2017-03-19T06:10:57.135Z,3696
2017-03-19T06:11:56.796Z,3888
2017-03-19T06:12:57.091Z,4020
2017-03-19T06:13:57.069Z,4056
2017-03-19T06:14:57.057Z,4000
2017-03-19T06:15:57.048Z,3992
2017-03-19T06:16:56.708Z,3964
2017-03-19T06:17:56.687Z,3916
2017-03-19T06:18:56.904Z,3936
2017-03-19T06:19:56.645Z,4016
2017-03-19T06:20:56.950Z,4112
2017-03-19T06:21:56.944Z,4192
2017-03-19T06:22:56.808Z,4292
2017-03-19T06:23:56.791Z,4284
2017-03-19T06:24:56.867Z,4256
2017-03-19T06:25:56.837Z,4308
2017-03-19T06:26:56.832Z,4440
2017-03-19T06:27:57.020Z,4560
2017-03-19T06:28:56.790Z,4720
2017-03-19T06:29:56.770Z,4972
2017-03-19T06:30:56.763Z,5116
2017-03-19T06:31:56.930Z,5104
2017-03-19T06:32:56.720Z,5196
2017-03-19T06:33:56.711Z,5260
2017-03-19T06:34:56.689Z,5324
2017-03-19T06:35:56.677Z,5312
2017-03-19T06:36:56.669Z,5260
2017-03-19T06:37:56.618Z,5232
2017-03-19T06:38:56.635Z,5180
2017-03-19T06:39:56.609Z,5208
2017-03-19T06:40:56.578Z,5312
2017-03-19T06:41:56.557Z,5632
2017-03-19T06:42:56.223Z,5784
2017-03-19T06:43:56.523Z,5780
2017-03-19T06:44:56.495Z,5812
2017-03-19T06:45:56.495Z,6024
2017-03-19T06:46:56.168Z,6092
2017-03-19T06:47:55.847Z,6344
2017-03-19T06:48:56.454Z,6716
2017-03-19T06:49:56.408Z,7036
2017-03-19T06:50:56.410Z,7296
2017-03-19T06:51:56.383Z,7360
2017-03-19T06:52:56.058Z,7392
2017-03-19T06:53:56.346Z,7324
2017-03-19T06:54:56.316Z,7256
2017-03-19T06:55:56.304Z,7284
2017-03-19T06:56:56.264Z,7732
2017-03-19T06:57:56.175Z,7600
2017-03-19T06:58:56.248Z,8204
2017-03-19T06:59:56.236Z,9060
2017-03-19T07:00:56.407Z,9704
2017-03-19T07:01:55.795Z,9800
2017-03-19T07:02:55.564Z,10152
2017-03-19T07:03:55.862Z,10792
2017-03-19T07:04:56.157Z,11364
2017-03-19T07:05:56.131Z,11820
2017-03-19T07:06:56.095Z,11508
2017-03-19T07:07:56.083Z,10876
2017-03-19T07:08:56.078Z,10356
2017-03-19T07:09:56.046Z,11052
2017-03-19T07:10:56.037Z,11956
2017-03-19T07:11:56.015Z,12488
2017-03-19T07:12:55.974Z,13008
2017-03-19T07:13:55.689Z,14188
2017-03-19T07:14:55.982Z,13332
2017-03-19T07:15:55.932Z,13584
2017-03-19T07:16:55.929Z,13844
2017-03-19T07:17:55.912Z,13888
2017-03-19T07:18:55.883Z,13320
2017-03-19T07:19:55.868Z,13464
2017-03-19T07:20:55.871Z,14004
2017-03-19T07:21:55.833Z,14744
2017-03-19T07:22:55.515Z,14996
2017-03-19T07:23:55.804Z,15264
2017-03-19T07:24:55.481Z,15912
2017-03-19T07:25:55.783Z,16200
2017-03-19T07:26:55.739Z,17388
2017-03-19T07:27:55.758Z,18560
2017-03-19T07:28:55.707Z,19424
2017-03-19T07:29:55.685Z,19360
2017-03-19T07:30:55.890Z,20640
2017-03-19T07:31:55.651Z,19680
2017-03-19T07:32:55.657Z,17368
2017-03-19T07:33:55.639Z,15896
2017-03-19T07:34:55.281Z,15660
2017-03-19T07:35:55.568Z,15736
2017-03-19T07:36:55.565Z,16400
2017-03-19T07:37:55.557Z,17172
2017-03-19T07:38:55.551Z,20160
2017-03-19T07:39:55.712Z,20416
2017-03-19T07:40:55.491Z,20736
2017-03-19T07:41:55.482Z,23296
2017-03-19T07:42:55.160Z,22784
2017-03-19T07:43:55.134Z,22848
2017-03-19T07:44:55.107Z,23808
2017-03-19T07:45:55.397Z,22656
2017-03-19T07:46:55.375Z,22496
2017-03-19T07:47:55.383Z,21440
2017-03-19T07:48:55.355Z,22272
2017-03-19T07:49:55.322Z,23264
2017-03-19T07:50:55.004Z,24448
2017-03-19T07:51:55.309Z,25024
2017-03-19T07:52:55.301Z,22688
2017-03-19T07:53:55.283Z,24448
2017-03-19T07:54:55.258Z,25984
2017-03-19T07:55:55.238Z,28352
2017-03-19T07:56:55.237Z,27392
2017-03-19T07:57:55.202Z,30240
2017-03-19T07:58:55.181Z,32256
2017-03-19T07:59:55.158Z,30944
2017-03-19T08:00:55.164Z,27808
2017-03-19T08:01:54.842Z,28704
2017-03-19T08:02:55.109Z,29728
2017-03-19T08:03:55.104Z,28128
2017-03-19T08:04:54.994Z,27520
2017-03-19T08:05:54.771Z,26208
2017-03-19T08:06:55.050Z,29792
2017-03-19T08:07:55.020Z,30816
2017-03-19T08:08:54.698Z,32512
2017-03-19T08:09:54.704Z,36672
2017-03-19T08:10:54.988Z,35968
2017-03-19T08:11:54.961Z,35936
2017-03-19T08:12:54.649Z,36896
2017-03-19T08:13:54.612Z,34432
2017-03-19T08:14:54.893Z,34432
2017-03-19T08:15:54.894Z,38528
2017-03-19T08:16:54.885Z,36192
2017-03-19T08:17:54.861Z,34336
2017-03-19T08:18:54.549Z,38560
2017-03-19T08:19:54.836Z,38816
2017-03-19T08:20:54.817Z,37984
2017-03-19T08:21:54.779Z,36960
2017-03-19T08:22:54.784Z,33312
2017-03-19T08:23:54.778Z,32768
2017-03-19T08:24:54.743Z,32960
2017-03-19T08:25:54.433Z,34144
2017-03-19T08:26:54.403Z,33600
2017-03-19T08:27:54.674Z,37888
2017-03-19T08:28:54.683Z,34528
2017-03-19T08:29:54.687Z,34784
2017-03-19T08:30:54.648Z,34848
2017-03-19T08:31:54.632Z,29568
2017-03-19T08:32:54.609Z,28832
2017-03-19T08:33:54.623Z,30336
2017-03-19T08:34:54.588Z,38048
2017-03-19T08:35:54.598Z,33312
2017-03-19T08:36:54.552Z,31552
2017-03-19T08:37:54.542Z,35648
2017-03-19T08:38:54.532Z,45312
2017-03-19T08:39:54.500Z,47360
2017-03-19T08:40:54.473Z,43040
2017-03-19T08:41:54.482Z,37600
2017-03-19T08:42:54.437Z,36832
2017-03-19T08:43:54.431Z,37408
2017-03-19T08:44:53.964Z,40576
2017-03-19T08:45:53.937Z,39584
2017-03-19T08:46:53.912Z,42208
2017-03-19T08:47:53.605Z,41760
2017-03-19T08:48:53.881Z,37120
2017-03-19T08:49:53.874Z,31424
2017-03-19T08:50:53.863Z,26176
2017-03-19T08:51:53.849Z,27392
2017-03-19T08:52:53.523Z,32064
2017-03-19T08:53:53.794Z,46496
2017-03-19T08:54:53.488Z,52672
2017-03-19T08:55:54.242Z,53472
2017-03-19T08:56:54.202Z,39104
2017-03-19T08:57:54.199Z,33792
2017-03-19T08:58:53.438Z,36064
2017-03-19T08:59:53.713Z,36416
2017-03-19T09:00:53.704Z,34208
2017-03-19T09:01:53.677Z,32320
2017-03-19T09:02:53.664Z,36352
2017-03-19T09:03:53.633Z,47936
2017-03-19T09:04:53.610Z,52192
2017-03-19T09:05:53.595Z,50336
2017-03-19T09:06:53.598Z,39904
2017-03-19T09:07:53.567Z,30880
2017-03-19T09:08:53.570Z,29376
2017-03-19T09:09:53.536Z,35456
2017-03-19T09:10:53.530Z,40672
2017-03-19T09:11:53.497Z,46144
2017-03-19T09:12:53.171Z,47232
2017-03-19T09:13:53.470Z,44704
2017-03-19T09:14:53.452Z,34528
2017-03-19T09:15:53.414Z,34592
2017-03-19T09:16:53.103Z,44992
2017-03-19T09:17:53.392Z,52448
2017-03-19T09:18:53.394Z,50176
2017-03-19T09:19:53.359Z,41792
2017-03-19T09:20:53.350Z,34016
2017-03-19T09:21:53.326Z,32928
2017-03-19T09:22:53.299Z,36960
2017-03-19T09:23:53.299Z,38368
2017-03-19T09:24:53.268Z,31520
2017-03-19T09:25:53.257Z,26976
2017-03-19T09:26:53.251Z,26560
2017-03-19T09:27:53.231Z,28640
2017-03-19T09:28:53.198Z,31104
2017-03-19T09:29:53.191Z,31136
2017-03-19T09:30:53.169Z,30464
2017-03-19T09:31:53.149Z,33088
2017-03-19T09:32:53.125Z,35040
2017-03-19T09:33:53.113Z,31872
2017-03-19T09:34:53.109Z,30880
2017-03-19T09:35:53.099Z,35232
2017-03-19T09:36:53.074Z,39072
2017-03-19T09:37:53.048Z,42080
2017-03-19T09:38:53.023Z,40544
2017-03-19T09:39:53.042Z,40352
2017-03-19T09:40:52.696Z,40128
2017-03-19T09:41:53.021Z,37632
2017-03-19T09:42:52.675Z,39584
2017-03-19T09:43:52.952Z,43776
2017-03-19T09:44:52.921Z,58880
2017-03-19T09:45:52.914Z,60512
2017-03-19T09:46:52.893Z,66880
2017-03-19T09:47:53.358Z,58304
2017-03-19T09:48:53.328Z,42880
2017-03-19T09:49:53.292Z,32704
2017-03-19T09:50:53.289Z,27392
2017-03-19T09:51:53.267Z,22976
2017-03-19T09:52:53.252Z,21312
2017-03-19T09:53:53.234Z,25440
2017-03-19T09:54:52.938Z,31104
2017-03-19T09:55:53.220Z,41728
2017-03-19T09:56:52.880Z,52160
2017-03-19T09:57:53.179Z,56096
2017-03-19T09:58:52.865Z,44224
2017-03-19T09:59:52.844Z,39104
2017-03-19T10:00:52.673Z,54944
2017-03-19T10:01:52.646Z,61056
2017-03-19T10:02:52.632Z,57024
2017-03-19T10:03:52.613Z,60928
2017-03-19T10:04:52.605Z,50016
2017-03-19T10:05:52.606Z,44160
2017-03-19T10:06:53.031Z,40096
2017-03-19T10:07:52.708Z,36320
2017-03-19T10:08:53.017Z,31872
2017-03-19T10:09:52.978Z,31168
2017-03-19T10:10:52.528Z,32768
2017-03-19T10:11:52.483Z,34976
2017-03-19T10:12:52.481Z,35520
2017-03-19T10:13:52.452Z,38624
2017-03-19T10:14:52.437Z,37952
2017-03-19T10:15:52.429Z,36864
2017-03-19T10:16:52.414Z,39424
2017-03-19T10:17:52.394Z,40608
2017-03-19T10:18:52.381Z,40896
2017-03-19T10:19:52.349Z,41632
2017-03-19T10:20:52.342Z,49472
2017-03-19T10:21:52.345Z,47904
2017-03-19T10:22:52.317Z,45344
2017-03-19T10:23:52.300Z,52288
2017-03-19T10:24:52.283Z,50464
2017-03-19T10:25:52.262Z,43552
2017-03-19T10:26:52.250Z,39520
2017-03-19T10:27:52.250Z,42240
2017-03-19T10:28:52.727Z,67488
2017-03-19T10:29:52.655Z,54752
2017-03-19T10:30:52.649Z,55456
2017-03-19T10:31:52.604Z,49920
2017-03-19T10:32:52.315Z,47776
2017-03-19T10:33:52.144Z,42016
2017-03-19T10:34:52.158Z,57632
2017-03-19T10:35:52.540Z,49856
2017-03-19T10:36:52.547Z,47520
2017-03-19T10:37:52.081Z,53984
2017-03-19T10:38:52.055Z,61696
2017-03-19T10:39:52.038Z,59200
2017-03-19T10:40:52.022Z,61312
2017-03-19T10:41:52.010Z,55136
2017-03-19T10:42:51.996Z,71968
2017-03-19T10:43:51.975Z,53088
2017-03-19T10:44:51.961Z,47456
2017-03-19T10:45:51.941Z,55584
2017-03-19T10:46:51.939Z,55776
2017-03-19T10:47:51.914Z,57120
2017-03-19T10:48:52.379Z,64512
2017-03-19T10:49:52.338Z,107424
2017-03-19T10:50:52.325Z,72960
2017-03-19T10:51:52.281Z,83008
2017-03-19T10:52:52.316Z,65536
2017-03-19T10:53:52.266Z,64608
2017-03-19T10:54:52.248Z,77664
2017-03-19T10:55:52.237Z,88352
2017-03-19T10:56:52.217Z,85120
2017-03-19T10:57:52.211Z,59584
2017-03-19T10:58:52.181Z,49952
2017-03-19T10:59:52.175Z,46464
2017-03-19T11:00:52.160Z,56000
2017-03-19T11:01:52.139Z,45216
2017-03-19T11:02:52.132Z,41856
2017-03-19T11:03:52.168Z,34688
2017-03-19T11:04:52.116Z,32864
2017-03-19T11:05:52.091Z,33312
2017-03-19T11:06:52.076Z,35520
2017-03-19T11:07:51.592Z,31104
2017-03-19T11:08:51.585Z,30112
2017-03-19T11:09:51.582Z,27776
2017-03-19T11:10:51.551Z,28096
2017-03-19T11:11:51.537Z,28640
2017-03-19T11:12:51.529Z,33280
2017-03-19T11:13:51.494Z,34208
2017-03-19T11:14:51.192Z,29664
2017-03-19T11:15:51.474Z,29472
2017-03-19T11:16:51.451Z,28864
2017-03-19T11:17:51.451Z,28608
2017-03-19T11:18:51.432Z,27456
2017-03-19T11:19:51.107Z,35456
2017-03-19T11:20:51.389Z,35616
2017-03-19T11:21:51.400Z,32672
2017-03-19T11:22:51.363Z,30880
2017-03-19T11:23:51.335Z,33248
2017-03-19T11:24:51.320Z,36192
2017-03-19T11:25:51.000Z,32288
2017-03-19T11:26:50.980Z,35776
2017-03-19T11:27:51.268Z,45568
2017-03-19T11:28:51.248Z,39424
2017-03-19T11:29:51.224Z,72064
2017-03-19T11:30:51.229Z,38784
2017-03-19T11:31:51.200Z,55040
2017-03-19T11:32:50.887Z,39104
2017-03-19T11:33:51.175Z,36736
2017-03-19T11:34:51.148Z,48480
2017-03-19T11:35:51.132Z,47136
2017-03-19T11:36:51.113Z,50016
2017-03-19T11:37:51.108Z,56768
2017-03-19T11:38:51.071Z,49792
2017-03-19T11:39:50.753Z,58400
2017-03-19T11:40:51.036Z,49472
2017-03-19T11:41:51.020Z,52960
2017-03-19T11:42:51.006Z,65952
2017-03-19T11:43:50.681Z,56288
2017-03-19T11:44:50.971Z,49120
2017-03-19T11:45:50.954Z,63136
2017-03-19T11:46:50.621Z,55520
2017-03-19T11:47:50.922Z,55776
2017-03-19T11:48:50.903Z,62720
2017-03-19T11:49:50.872Z,70304
2017-03-19T11:50:50.557Z,58496
2017-03-19T11:51:50.861Z,70496
2017-03-19T11:52:50.819Z,63360
2017-03-19T11:53:50.818Z,70592
2017-03-19T11:54:50.796Z,58176
2017-03-19T11:55:50.789Z,58752
2017-03-19T11:56:50.773Z,59072
2017-03-19T11:57:50.733Z,60928
2017-03-19T11:58:50.759Z,58720
2017-03-19T11:59:50.694Z,63040
2017-03-19T12:00:50.675Z,56128
2017-03-19T12:01:50.666Z,58784
2017-03-19T12:02:50.645Z,55840
2017-03-19T12:03:50.651Z,51936
2017-03-19T12:04:50.608Z,50592
2017-03-19T12:05:50.600Z,49440
2017-03-19T12:06:50.579Z,43232
2017-03-19T12:07:50.591Z,40416
2017-03-19T12:08:50.553Z,51232
2017-03-19T12:09:50.516Z,44960
2017-03-19T12:10:50.514Z,50560
2017-03-19T12:11:50.195Z,59104
2017-03-19T12:12:50.472Z,52416
2017-03-19T12:13:50.453Z,58944
2017-03-19T12:14:50.444Z,48608
2017-03-19T12:15:50.423Z,47200
2017-03-19T12:16:50.405Z,45536
2017-03-19T12:17:50.384Z,43168
2017-03-19T12:18:50.365Z,57440
2017-03-19T12:19:50.339Z,58784
2017-03-19T12:20:50.048Z,47616
2017-03-19T12:21:50.321Z,50912
2017-03-19T12:22:49.997Z,47584
2017-03-19T12:23:50.296Z,44640
2017-03-19T12:24:50.282Z,42720
2017-03-19T12:25:50.250Z,41760
2017-03-19T12:26:49.926Z,45344
2017-03-19T12:27:50.236Z,47648
2017-03-19T12:28:50.202Z,43616
2017-03-19T12:29:50.181Z,36032
2017-03-19T12:30:50.155Z,58432
2017-03-19T12:31:50.151Z,44128
2017-03-19T12:32:50.136Z,49216
2017-03-19T12:33:50.115Z,52608
2017-03-19T12:34:50.099Z,71456
2017-03-19T12:35:50.077Z,64384
2017-03-19T12:36:50.069Z,46976
2017-03-19T12:37:49.745Z,43840
2017-03-19T12:38:50.025Z,45792
2017-03-19T12:39:50.023Z,51072
2017-03-19T12:40:49.985Z,46208
2017-03-19T12:41:49.989Z,38048
2017-03-19T12:42:49.966Z,51232
2017-03-19T12:43:49.946Z,50368
2017-03-19T12:44:49.943Z,41856
2017-03-19T12:45:49.911Z,43776
2017-03-19T12:46:49.889Z,49408
2017-03-19T12:47:49.878Z,37280
2017-03-19T12:48:49.864Z,39136
2017-03-19T12:49:49.857Z,35648
2017-03-19T12:50:49.843Z,34304
2017-03-19T12:51:49.805Z,36576
2017-03-19T12:52:49.792Z,44480
2017-03-19T12:53:49.769Z,52032
2017-03-19T12:54:49.742Z,52000
2017-03-19T12:55:49.450Z,35456
2017-03-19T12:56:49.723Z,43136
2017-03-19T12:57:49.715Z,39776
2017-03-19T12:58:49.682Z,47520
2017-03-19T12:59:49.670Z,43040
2017-03-19T13:00:49.650Z,34240
2017-03-19T13:01:49.628Z,36800
2017-03-19T13:02:49.631Z,44032
2017-03-19T13:03:49.613Z,50240
2017-03-19T13:04:49.584Z,66368
2017-03-19T13:05:49.268Z,45216
2017-03-19T13:06:49.561Z,33632
2017-03-19T13:07:49.534Z,57984
2017-03-19T13:08:49.511Z,55552
2017-03-19T13:09:49.508Z,52384
2017-03-19T13:10:49.468Z,49184
2017-03-19T13:11:49.452Z,40064
2017-03-19T13:12:49.456Z,30976
2017-03-19T13:13:49.419Z,40736
2017-03-19T13:14:49.426Z,49568
2017-03-19T13:15:49.406Z,31872
2017-03-19T13:16:49.376Z,40800
2017-03-19T13:17:49.054Z,32128
2017-03-19T13:18:49.351Z,37600
2017-03-19T13:19:49.319Z,37120
2017-03-19T13:20:49.304Z,37696
2017-03-19T13:21:49.298Z,40256
2017-03-19T13:22:48.980Z,45152
2017-03-19T13:23:49.253Z,47136
2017-03-19T13:24:49.239Z,37568
2017-03-19T13:25:49.212Z,48928
2017-03-19T13:26:48.912Z,30464
2017-03-19T13:27:49.190Z,41440
2017-03-19T13:28:49.171Z,46016
2017-03-19T13:29:49.151Z,39680
2017-03-19T13:30:49.137Z,39936
2017-03-19T13:31:49.127Z,35712
2017-03-19T13:32:49.122Z,41216
2017-03-19T13:33:49.091Z,47712
2017-03-19T13:34:49.074Z,38880
2017-03-19T13:35:49.049Z,47328
2017-03-19T13:36:49.045Z,50464